createdAt,value
2022-09-07T00:00:38.287Z,55.20
2022-09-07T00:01:42.102Z,54.70
2022-09-07T00:02:44.836Z,55.60
2022-09-07T00:03:48.541Z,55.00
2022-09-07T00:04:51.367Z,55.20
2022-09-07T00:05:55.170Z,55.10
2022-09-07T00:06:58.108Z,55.00
2022-09-07T00:08:02.368Z,55.00
2022-09-07T00:09:06.789Z,54.90
2022-09-07T00:10:10.319Z,55.40
2022-09-07T00:11:17.735Z,55.40
2022-09-07T00:12:20.744Z,55.10
2022-09-07T00:13:26.108Z,55.00
2022-09-07T00:14:28.814Z,54.20
2022-09-07T00:15:32.724Z,54.90
2022-09-07T00:16:35.518Z,54.80
2022-09-07T00:17:40.096Z,54.50
2022-09-07T00:18:46.011Z,55.00
2022-09-07T00:19:50.467Z,54.90
2022-09-07T00:20:59.832Z,54.90
2022-09-07T00:22:03.654Z,54.90
2022-09-07T00:23:07.591Z,55.10
2022-09-07T00:24:11.269Z,55.10
2022-09-07T00:25:14.225Z,55.10
2022-09-07T00:26:22.245Z,55.10
2022-09-07T00:27:24.942Z,55.10
2022-09-07T00:28:28.920Z,55.00
2022-09-07T00:29:32.002Z,55.10
2022-09-07T00:30:36.206Z,55.30
2022-09-07T00:31:39.381Z,55.40
2022-09-07T00:32:43.543Z,55.30
2022-09-07T00:33:49.251Z,55.30
2022-09-07T00:34:53.193Z,55.50
2022-09-07T00:35:55.892Z,55.50
2022-09-07T00:37:00.031Z,55.70
2022-09-07T00:38:02.766Z,55.70
2022-09-07T00:39:07.345Z,55.80
2022-09-07T00:40:10.481Z,56.00
2022-09-07T00:41:16.719Z,55.90
2022-09-07T00:42:22.378Z,56.30
2022-09-07T00:43:37.682Z,56.20
2022-09-07T00:45:04.152Z,56.50
2022-09-07T00:46:13.727Z,56.10
2022-09-07T00:47:21.073Z,57.20
2022-09-07T00:48:34.358Z,56.40
2022-09-07T00:49:40.121Z,56.70
2022-09-07T00:50:49.018Z,56.40
2022-09-07T00:51:57.946Z,56.50
2022-09-07T00:53:11.847Z,56.50
2022-09-07T00:54:19.590Z,56.40
2022-09-07T00:55:23.809Z,56.40
2022-09-07T00:56:33.478Z,56.50
2022-09-07T00:57:41.990Z,56.60
2022-09-07T00:58:45.164Z,56.60
2022-09-07T00:59:54.029Z,56.50
2022-09-07T01:00:57.040Z,56.70
2022-09-07T01:02:01.154Z,56.80
2022-09-07T01:03:05.859Z,56.80
2022-09-07T01:04:11.295Z,57.00
2022-09-07T01:05:22.182Z,56.90
2022-09-07T01:06:30.144Z,56.90
2022-09-07T01:07:33.449Z,57.30
2022-09-07T01:08:37.303Z,57.50
2022-09-07T01:09:43.273Z,57.10
2022-09-07T01:10:47.512Z,57.00
2022-09-07T01:11:52.626Z,57.00
2022-09-07T01:12:58.069Z,56.90
2022-09-07T01:14:04.321Z,56.70
2022-09-07T01:15:09.155Z,56.80
2022-09-07T01:16:25.373Z,57.10
2022-09-07T01:17:41.303Z,57.00
2022-09-07T01:19:00.705Z,57.10
2022-09-07T01:20:38.193Z,57.10
2022-09-07T01:22:01.544Z,57.10
2022-09-07T01:23:27.991Z,57.40
2022-09-07T01:24:45.256Z,57.20
2022-09-07T01:26:12.445Z,57.30
2022-09-07T01:27:51.496Z,57.30
2022-09-07T01:29:06.585Z,57.30
2022-09-07T01:30:13.519Z,57.60
2022-09-07T01:31:25.990Z,57.60
2022-09-07T01:32:49.164Z,57.60
2022-09-07T01:34:01.216Z,57.80
2022-09-07T01:35:15.439Z,58.40
2022-09-07T01:36:29.245Z,58.10
2022-09-07T01:37:44.249Z,58.40
2022-09-07T01:38:50.661Z,58.10
2022-09-07T01:40:04.668Z,58.00
2022-09-07T01:41:16.683Z,58.20
2022-09-07T01:42:25.724Z,57.90
2022-09-07T01:43:39.691Z,57.90
2022-09-07T01:44:52.337Z,57.80
2022-09-07T01:45:58.870Z,58.10
2022-09-07T01:47:07.634Z,58.10
2022-09-07T01:48:17.853Z,58.10
2022-09-07T01:49:28.206Z,58.00
2022-09-07T01:50:40.171Z,58.10
2022-09-07T01:51:48.305Z,57.30
2022-09-07T01:52:59.475Z,58.00
2022-09-07T01:54:11.020Z,58.20
2022-09-07T01:55:20.306Z,58.30
2022-09-07T01:56:29.084Z,58.20
2022-09-07T01:57:42.270Z,58.30
2022-09-07T01:58:52.229Z,58.40
2022-09-07T02:00:05.390Z,58.30
2022-09-07T02:01:26.328Z,58.20
2022-09-07T02:02:34.413Z,58.10
2022-09-07T02:03:45.273Z,58.50
2022-09-07T02:04:56.731Z,58.60
2022-09-07T02:06:04.923Z,58.60
2022-09-07T02:07:15.944Z,58.60
2022-09-07T02:08:26.301Z,58.60
2022-09-07T02:09:37.577Z,58.60
2022-09-07T02:10:47.606Z,58.80
2022-09-07T02:11:51.670Z,58.90
2022-09-07T02:13:04.454Z,58.90
2022-09-07T02:14:14.940Z,58.80
2022-09-07T02:15:27.063Z,58.80
2022-09-07T02:16:33.695Z,58.80
2022-09-07T02:17:43.983Z,58.80
2022-09-07T02:18:50.840Z,59.00
2022-09-07T02:20:00.178Z,58.90
2022-09-07T02:21:08.076Z,58.90
2022-09-07T02:22:18.352Z,59.10
2022-09-07T02:23:26.713Z,59.10
2022-09-07T02:24:35.430Z,59.20
2022-09-07T02:25:44.077Z,59.30
2022-09-07T02:26:51.520Z,59.30
2022-09-07T02:27:59.410Z,59.20
2022-09-07T02:29:03.141Z,59.20
2022-09-07T02:30:06.731Z,58.80
2022-09-07T02:31:12.204Z,59.20
2022-09-07T02:32:14.905Z,59.20
2022-09-07T02:33:18.861Z,59.20
2022-09-07T02:34:21.773Z,59.10
2022-09-07T02:35:25.608Z,59.10
2022-09-07T02:36:35.518Z,59.20
2022-09-07T02:37:41.331Z,59.10
2022-09-07T02:38:44.507Z,59.10
2022-09-07T02:39:49.528Z,59.10
2022-09-07T02:40:53.280Z,59.10
2022-09-07T02:41:56.959Z,59.10
2022-09-07T02:43:03.688Z,59.20
2022-09-07T02:44:14.370Z,59.20
2022-09-07T02:45:17.973Z,58.40
2022-09-07T02:46:40.611Z,59.20
2022-09-07T02:47:59.559Z,59.20
2022-09-07T02:49:10.972Z,59.20
2022-09-07T02:50:34.797Z,59.30
2022-09-07T02:51:46.871Z,59.20
2022-09-07T02:53:12.464Z,59.20
2022-09-07T02:54:31.182Z,59.20
2022-09-07T02:55:47.796Z,59.20
2022-09-07T02:57:00.939Z,59.30
2022-09-07T02:58:20.491Z,59.30
2022-09-07T02:59:43.654Z,59.40
2022-09-07T03:00:58.172Z,59.40
2022-09-07T03:02:10.839Z,59.40
2022-09-07T03:03:22.823Z,59.40
2022-09-07T03:04:38.493Z,59.40
2022-09-07T03:05:48.339Z,59.50
2022-09-07T03:06:57.922Z,58.70
2022-09-07T03:08:07.244Z,59.40
2022-09-07T03:09:16.246Z,59.60
2022-09-07T03:10:20.781Z,59.90
2022-09-07T03:11:24.051Z,59.70
2022-09-07T03:12:41.089Z,59.70
2022-09-07T03:13:43.346Z,59.90
2022-09-07T03:14:47.060Z,59.90
2022-09-07T03:15:52.447Z,59.80
2022-09-07T03:16:58.955Z,59.90
2022-09-07T03:18:06.187Z,59.80
2022-09-07T03:19:09.589Z,60.00
2022-09-07T03:20:13.158Z,59.90
2022-09-07T03:21:16.653Z,60.00
2022-09-07T03:22:19.009Z,60.20
2022-09-07T03:23:22.535Z,60.30
2022-09-07T03:24:25.001Z,60.20
2022-09-07T03:25:28.439Z,60.30
2022-09-07T03:26:30.904Z,60.20
2022-09-07T03:27:36.750Z,60.00
2022-09-07T03:28:40.195Z,60.60
2022-09-07T03:29:42.393Z,60.40
2022-09-07T03:30:49.439Z,60.60
2022-09-07T03:31:51.816Z,61.20
2022-09-07T03:32:55.118Z,60.60
2022-09-07T03:33:58.933Z,60.80
2022-09-07T03:35:03.159Z,61.50
2022-09-07T03:36:07.119Z,60.80
2022-09-07T03:37:09.887Z,60.90
2022-09-07T03:38:13.064Z,61.20
2022-09-07T03:39:15.738Z,61.00
2022-09-07T03:40:19.362Z,61.10
2022-09-07T03:41:21.897Z,61.10
2022-09-07T03:42:25.478Z,61.30
2022-09-07T03:43:28.412Z,61.20
2022-09-07T03:44:31.888Z,61.20
2022-09-07T03:45:34.180Z,61.30
2022-09-07T03:46:37.616Z,61.20
2022-09-07T03:47:41.104Z,61.40
2022-09-07T03:48:44.986Z,61.20
2022-09-07T03:49:49.382Z,61.30
2022-09-07T03:50:58.006Z,61.20
2022-09-07T03:52:00.979Z,61.30
2022-09-07T03:53:04.150Z,61.30
2022-09-07T03:54:06.827Z,61.20
2022-09-07T03:55:10.557Z,61.20
2022-09-07T03:56:16.222Z,61.30
2022-09-07T03:57:20.397Z,61.30
2022-09-07T03:58:22.896Z,61.20
2022-09-07T03:59:26.318Z,61.20
2022-09-07T04:00:28.778Z,62.40
2022-09-07T04:01:32.093Z,60.20
2022-09-07T04:02:34.667Z,61.30
2022-09-07T04:03:39.657Z,61.30
2022-09-07T04:04:42.539Z,61.40
2022-09-07T04:05:47.255Z,61.40
2022-09-07T04:06:53.602Z,61.30
2022-09-07T04:07:56.376Z,61.50
2022-09-07T04:09:03.263Z,61.60
2022-09-07T04:10:06.283Z,61.40
2022-09-07T04:11:13.028Z,61.60
2022-09-07T04:12:15.288Z,61.60
2022-09-07T04:13:19.001Z,61.60
2022-09-07T04:14:22.329Z,61.70
2022-09-07T04:15:25.000Z,61.80
2022-09-07T04:16:29.782Z,62.00
2022-09-07T04:17:32.324Z,61.90
2022-09-07T04:18:37.510Z,61.70
2022-09-07T04:19:40.977Z,61.90
2022-09-07T04:20:47.492Z,61.90
2022-09-07T04:21:51.538Z,61.70
2022-09-07T04:22:54.470Z,61.90
2022-09-07T04:23:59.177Z,61.90
2022-09-07T04:25:01.665Z,61.70
2022-09-07T04:26:04.984Z,61.80
2022-09-07T04:27:07.491Z,61.80
2022-09-07T04:28:10.968Z,61.90
2022-09-07T04:29:14.942Z,61.70
2022-09-07T04:30:17.510Z,61.70
2022-09-07T04:31:21.724Z,61.80
2022-09-07T04:32:24.299Z,61.50
2022-09-07T04:33:27.654Z,60.80
2022-09-07T04:34:30.053Z,60.20
2022-09-07T04:35:36.660Z,59.60
2022-09-07T04:36:40.337Z,58.90
2022-09-07T04:37:44.748Z,58.20
2022-09-07T04:38:49.497Z,57.90
2022-09-07T04:39:52.171Z,57.10
2022-09-07T04:41:01.628Z,56.60
2022-09-07T04:42:05.380Z,55.50
2022-09-07T04:43:09.947Z,54.90
2022-09-07T04:44:16.797Z,54.10
2022-09-07T04:45:19.531Z,53.40
2022-09-07T04:46:27.057Z,53.20
2022-09-07T04:47:31.497Z,53.00
2022-09-07T04:48:34.264Z,53.10
2022-09-07T04:49:37.936Z,53.40
2022-09-07T04:50:40.353Z,52.50
2022-09-07T04:51:45.072Z,52.40
2022-09-07T04:52:47.624Z,52.50
2022-09-07T04:53:53.165Z,52.20
2022-09-07T04:54:55.510Z,52.20
2022-09-07T04:55:59.393Z,52.00
2022-09-07T04:57:02.773Z,52.00
2022-09-07T04:58:05.144Z,52.10
2022-09-07T04:59:09.139Z,51.90
2022-09-07T05:00:12.368Z,51.70
2022-09-07T05:01:18.194Z,51.60
2022-09-07T05:02:20.529Z,51.50
2022-09-07T05:03:23.855Z,51.50
2022-09-07T05:04:26.256Z,51.30
2022-09-07T05:05:29.531Z,51.10
2022-09-07T05:06:33.273Z,51.40
2022-09-07T05:07:37.004Z,50.90
2022-09-07T05:08:42.661Z,50.80
2022-09-07T05:09:45.281Z,50.90
2022-09-07T05:10:52.656Z,50.70
2022-09-07T05:11:55.604Z,50.70
2022-09-07T05:12:59.900Z,50.60
2022-09-07T05:14:03.746Z,50.60
2022-09-07T05:15:07.958Z,50.10
2022-09-07T05:16:11.953Z,49.90
2022-09-07T05:17:15.441Z,49.60
2022-09-07T05:18:17.845Z,49.70
2022-09-07T05:19:21.573Z,49.80
2022-09-07T05:20:24.714Z,49.60
2022-09-07T05:21:30.597Z,49.80
2022-09-07T05:22:34.562Z,50.10
2022-09-07T05:23:39.662Z,49.90
2022-09-07T05:24:41.889Z,49.50
2022-09-07T05:25:46.321Z,49.40
2022-09-07T05:26:48.722Z,50.50
2022-09-07T05:27:52.695Z,49.20
2022-09-07T05:31:42.261Z,48.60
2022-09-07T05:32:46.467Z,49.00
2022-09-07T05:35:14.720Z,49.00
2022-09-07T05:36:17.849Z,48.50
2022-09-07T05:37:21.475Z,48.70
2022-09-07T05:38:25.885Z,48.50
2022-09-07T05:39:31.094Z,48.50
2022-09-07T05:40:38.470Z,48.40
2022-09-07T05:41:43.784Z,47.90
2022-09-07T05:42:46.397Z,47.40
2022-09-07T05:45:14.314Z,47.30
2022-09-07T05:46:17.981Z,47.40
2022-09-07T05:47:21.334Z,47.90
2022-09-07T05:48:24.610Z,47.90
2022-09-07T05:49:28.058Z,46.80
2022-09-07T05:50:30.484Z,47.00
2022-09-07T05:51:34.650Z,46.70
2022-09-07T05:52:37.404Z,45.60
2022-09-07T05:53:43.147Z,46.30
2022-09-07T05:54:47.411Z,46.00
2022-09-07T05:55:50.927Z,46.40
2022-09-07T05:56:53.251Z,46.30
2022-09-07T05:57:56.524Z,46.10
2022-09-07T05:58:59.143Z,46.40
2022-09-07T06:00:03.597Z,45.60
2022-09-07T06:01:14.194Z,45.50
2022-09-07T06:02:17.583Z,44.80
2022-09-07T06:03:20.152Z,44.30
2022-09-07T06:04:24.893Z,44.50
2022-09-07T06:05:27.913Z,44.00
2022-09-07T06:06:31.341Z,44.50
2022-09-07T06:07:33.591Z,44.60
2022-09-07T06:08:40.228Z,44.30
2022-09-07T06:11:12.325Z,44.70
2022-09-07T06:12:14.647Z,44.40
2022-09-07T06:13:19.227Z,44.60
2022-09-07T06:14:21.473Z,44.30
2022-09-07T06:15:25.242Z,43.90
2022-09-07T06:16:27.631Z,44.00
2022-09-07T06:17:31.562Z,43.40
2022-09-07T06:18:36.525Z,43.70
2022-09-07T06:19:39.903Z,43.40
2022-09-07T06:20:42.682Z,43.00
2022-09-07T06:21:45.929Z,43.50
2022-09-07T06:22:48.305Z,43.10
2022-09-07T06:23:53.344Z,43.80
2022-09-07T06:24:55.878Z,43.70
2022-09-07T06:26:00.443Z,43.00
2022-09-07T06:27:04.632Z,44.20
2022-09-07T06:28:08.241Z,43.20
2022-09-07T06:29:12.358Z,42.80
2022-09-07T06:30:16.041Z,43.10
2022-09-07T06:31:20.828Z,43.10
2022-09-07T06:33:48.807Z,43.10
2022-09-07T06:34:51.250Z,43.30
2022-09-07T06:35:58.856Z,42.90
2022-09-07T06:37:02.674Z,42.50
2022-09-07T06:38:05.065Z,43.20
2022-09-07T06:39:08.611Z,42.70
2022-09-07T06:40:12.195Z,42.30
2022-09-07T06:42:43.883Z,42.40
2022-09-07T06:43:47.176Z,42.30
2022-09-07T06:44:50.450Z,42.60
2022-09-07T06:45:54.250Z,42.50
2022-09-07T06:47:05.121Z,42.00
2022-09-07T06:48:08.914Z,41.50
2022-09-07T06:49:11.427Z,42.30
2022-09-07T06:50:15.240Z,42.50
2022-09-07T06:51:19.772Z,42.50
2022-09-07T06:52:23.228Z,42.70
2022-09-07T06:56:01.290Z,41.80
2022-09-07T06:57:09.390Z,42.30
2022-09-07T06:58:14.373Z,42.50
2022-09-07T06:59:17.179Z,42.70
2022-09-07T07:00:20.804Z,42.70
2022-09-07T07:01:24.617Z,42.80
2022-09-07T07:02:28.323Z,42.70
2022-09-07T07:03:30.716Z,42.90
2022-09-07T07:04:40.200Z,42.70
2022-09-07T07:05:51.349Z,42.60
2022-09-07T07:06:54.727Z,42.60
2022-09-07T07:07:57.345Z,42.10
2022-09-07T07:09:01.456Z,42.10
2022-09-07T07:10:04.429Z,42.20
2022-09-07T07:11:10.303Z,41.90
2022-09-07T07:12:12.635Z,41.50
2022-09-07T07:14:19.491Z,41.80
2022-09-07T07:15:29.021Z,41.10
2022-09-07T07:16:31.695Z,41.90
2022-09-07T07:17:35.180Z,41.80
2022-09-07T07:18:37.952Z,42.00
2022-09-07T07:19:41.346Z,42.30
2022-09-07T07:20:44.428Z,40.70
2022-09-07T07:22:10.719Z,40.70
2022-09-07T07:23:12.929Z,40.90
2022-09-07T07:24:15.725Z,41.60
2022-09-07T07:25:19.580Z,41.20
2022-09-07T07:26:27.068Z,40.60
2022-09-07T07:27:31.590Z,40.70
2022-09-07T07:30:00.676Z,40.20
2022-09-07T07:31:09.774Z,41.20
2022-09-07T07:32:14.965Z,41.20
2022-09-07T07:33:17.343Z,41.20
2022-09-07T07:34:21.133Z,41.30
2022-09-07T07:35:24.176Z,40.40
2022-09-07T07:36:28.902Z,41.30
2022-09-07T07:37:32.484Z,40.50
2022-09-07T07:40:16.977Z,39.50
2022-09-07T07:42:50.094Z,39.40
2022-09-07T07:43:58.424Z,38.60
2022-09-07T07:46:26.506Z,39.50
2022-09-07T07:47:29.202Z,39.80
2022-09-07T07:48:33.594Z,40.50
2022-09-07T07:49:37.201Z,40.90
2022-09-07T07:50:39.573Z,40.50
2022-09-07T07:54:30.229Z,40.20
2022-09-07T07:55:48.814Z,40.10
2022-09-07T07:56:52.476Z,40.00
2022-09-07T07:57:54.685Z,40.10
2022-09-07T07:58:59.384Z,39.90
2022-09-07T08:00:02.146Z,40.10
2022-09-07T08:01:16.359Z,40.20
2022-09-07T08:02:19.710Z,40.00
2022-09-07T08:03:23.519Z,39.90
2022-09-07T08:04:26.932Z,39.80
2022-09-07T08:05:29.351Z,39.50
2022-09-07T08:06:32.739Z,39.50
2022-09-07T08:07:36.222Z,39.50
2022-09-07T08:08:39.010Z,39.70
2022-09-07T08:09:44.205Z,40.00
2022-09-07T08:10:48.097Z,39.70
2022-09-07T08:11:51.675Z,39.90
2022-09-07T08:12:54.092Z,40.00
2022-09-07T08:14:00.359Z,39.90
2022-09-07T08:15:02.613Z,40.00
2022-09-07T08:16:07.824Z,39.70
2022-09-07T08:17:12.152Z,39.00
2022-09-07T08:18:17.401Z,39.30
2022-09-07T08:19:21.114Z,39.60
2022-09-07T08:20:24.879Z,39.90
2022-09-07T08:21:28.521Z,39.50
2022-09-07T08:22:34.779Z,38.00
2022-09-07T08:23:40.815Z,39.00
2022-09-07T08:24:44.700Z,39.10
2022-09-07T08:25:51.736Z,39.90
2022-09-07T08:26:55.115Z,40.00
2022-09-07T08:27:58.446Z,40.30
2022-09-07T08:29:03.627Z,41.10
2022-09-07T08:30:07.539Z,40.80
2022-09-07T08:31:13.279Z,40.90
2022-09-07T08:32:16.806Z,40.70
2022-09-07T08:33:19.190Z,40.80
2022-09-07T08:34:22.960Z,40.80
2022-09-07T08:35:25.446Z,40.90
2022-09-07T08:36:31.835Z,41.40
2022-09-07T08:37:35.287Z,40.90
2022-09-07T08:38:38.659Z,40.80
2022-09-07T08:39:42.713Z,40.60
2022-09-07T08:40:45.196Z,40.30
2022-09-07T08:42:23.085Z,40.80
2022-09-07T08:43:49.445Z,41.00
2022-09-07T08:45:01.432Z,41.70
2022-09-07T08:46:14.463Z,41.70
2022-09-07T08:47:28.620Z,41.90
2022-09-07T08:48:35.397Z,41.20
2022-09-07T08:49:46.930Z,41.00
2022-09-07T08:50:57.989Z,41.10
2022-09-07T08:52:05.517Z,41.10
2022-09-07T08:53:14.348Z,41.40
2022-09-07T08:54:17.484Z,41.40
2022-09-07T08:55:28.133Z,40.70
2022-09-07T08:56:35.878Z,40.50
2022-09-07T08:57:47.222Z,40.60
2022-09-07T08:58:51.398Z,41.00
2022-09-07T09:00:05.480Z,40.70
2022-09-07T09:04:16.948Z,40.20
2022-09-07T09:05:34.033Z,40.40
2022-09-07T09:06:11.036Z,39.90
2022-09-07T09:06:50.230Z,40.10
2022-09-07T09:08:13.387Z,39.40
2022-09-07T09:09:31.965Z,39.20
2022-09-07T09:10:47.858Z,38.90
2022-09-07T09:12:04.636Z,38.80
2022-09-07T09:13:18.494Z,38.40
2022-09-07T09:14:33.622Z,38.60
2022-09-07T09:15:52.457Z,39.80
2022-09-07T09:17:04.357Z,38.90
2022-09-07T09:18:24.744Z,38.70
2022-09-07T09:19:54.542Z,38.60
2022-09-07T09:20:59.269Z,38.70
2022-09-07T09:22:16.209Z,39.00
2022-09-07T09:23:24.673Z,38.10
2022-09-07T09:24:37.559Z,38.30
2022-09-07T09:25:49.133Z,38.60
2022-09-07T09:26:58.465Z,38.80
2022-09-07T09:28:01.193Z,38.00
2022-09-07T09:29:14.545Z,38.70
2022-09-07T09:30:20.087Z,38.80
2022-09-07T09:31:28.277Z,39.00
2022-09-07T09:32:33.468Z,39.20
2022-09-07T09:33:37.027Z,38.80
2022-09-07T09:34:40.523Z,39.00
2022-09-07T09:35:45.150Z,39.40
2022-09-07T09:36:50.355Z,39.50
2022-09-07T09:37:52.635Z,39.00
2022-09-07T09:38:57.146Z,38.90
2022-09-07T09:40:02.831Z,38.10
2022-09-07T09:41:10.075Z,38.50
2022-09-07T09:42:18.090Z,39.10
2022-09-07T09:43:25.163Z,39.30
2022-09-07T09:44:35.488Z,38.80
2022-09-07T09:47:30.508Z,37.30
2022-09-07T09:48:35.491Z,37.80
2022-09-07T09:49:42.045Z,38.10
2022-09-07T09:52:29.777Z,38.80
2022-09-07T09:53:41.155Z,39.20
2022-09-07T09:54:50.938Z,39.40
2022-09-07T09:55:54.924Z,38.50
2022-09-07T09:56:58.407Z,39.00
2022-09-07T10:05:01.132Z,38.20
2022-09-07T10:06:07.756Z,38.40
2022-09-07T10:07:20.886Z,38.40
2022-09-07T10:08:28.849Z,38.50
2022-09-07T10:09:38.102Z,38.70
2022-09-07T10:10:57.394Z,38.70
2022-09-07T10:12:06.854Z,39.00
2022-09-07T10:13:22.847Z,39.00
2022-09-07T10:14:29.605Z,38.80
2022-09-07T10:15:41.306Z,39.10
2022-09-07T10:16:45.103Z,38.10
2022-09-07T10:17:52.276Z,37.80
2022-09-07T10:18:57.178Z,38.00
2022-09-07T10:20:03.526Z,38.10
2022-09-07T10:21:23.596Z,37.90
2022-09-07T10:22:34.251Z,37.60
2022-09-07T10:23:37.729Z,38.10
2022-09-07T10:24:41.524Z,38.20
2022-09-07T10:25:45.454Z,38.10
2022-09-07T10:26:48.710Z,38.40
2022-09-07T10:28:03.710Z,38.10
2022-09-07T10:29:12.560Z,38.00
2022-09-07T10:30:18.799Z,38.10
2022-09-07T10:31:31.621Z,38.10
2022-09-07T10:32:59.561Z,38.50
2022-09-07T10:34:31.540Z,38.30
2022-09-07T10:35:42.330Z,37.70
2022-09-07T10:36:51.986Z,37.60
2022-09-07T10:38:10.937Z,38.00
2022-09-07T10:39:18.140Z,38.40
2022-09-07T10:40:33.000Z,38.50
2022-09-07T10:41:48.536Z,37.10
2022-09-07T10:44:43.281Z,38.20
2022-09-07T10:46:08.779Z,36.80
2022-09-07T10:47:27.334Z,36.40
2022-09-07T10:48:43.558Z,36.60
2022-09-07T10:51:27.501Z,36.30
2022-09-07T10:52:40.095Z,36.30
2022-09-07T10:55:28.188Z,36.80
2022-09-07T10:56:37.860Z,36.70
2022-09-07T10:57:57.441Z,36.80
2022-09-07T10:59:16.970Z,36.90
2022-09-07T11:00:21.732Z,36.80
2022-09-07T11:01:38.628Z,36.30
2022-09-07T11:04:50.636Z,37.50
2022-09-07T11:06:06.631Z,37.20
2022-09-07T11:07:28.347Z,37.20
2022-09-07T11:10:25.009Z,36.20
2022-09-07T11:13:01.222Z,35.40
2022-09-07T11:14:13.563Z,35.40
2022-09-07T11:15:23.930Z,35.70
2022-09-07T11:18:02.558Z,36.20
2022-09-07T11:20:45.569Z,36.10
2022-09-07T11:21:57.935Z,36.20
2022-09-07T11:23:13.722Z,36.40
2022-09-07T11:24:27.928Z,35.90
2022-09-07T11:25:37.722Z,36.00
2022-09-07T11:26:48.075Z,36.20
2022-09-07T11:27:57.369Z,36.00
2022-09-07T11:30:35.813Z,36.50
2022-09-07T11:31:46.190Z,36.30
2022-09-07T11:33:05.163Z,36.60
2022-09-07T11:34:26.086Z,36.30
2022-09-07T11:35:42.347Z,36.30
2022-09-07T11:36:55.021Z,36.50
2022-09-07T11:38:06.649Z,35.90
2022-09-07T11:39:19.904Z,36.70
2022-09-07T11:40:29.142Z,36.70
2022-09-07T11:41:40.854Z,36.40
2022-09-07T11:42:51.682Z,37.30
2022-09-07T11:44:03.197Z,36.50
2022-09-07T11:45:15.458Z,36.50
2022-09-07T11:46:28.279Z,36.40
2022-09-07T11:47:41.502Z,36.00
2022-09-07T11:48:50.439Z,36.10
2022-09-07T11:49:58.497Z,36.10
2022-09-07T11:51:10.282Z,36.20
2022-09-07T11:52:29.168Z,35.70
2022-09-07T11:53:37.679Z,35.30
2022-09-07T11:54:48.872Z,35.60
2022-09-07T11:55:59.978Z,35.10
2022-09-07T11:57:33.285Z,34.50
2022-09-07T11:59:03.586Z,34.80
2022-09-07T12:00:14.011Z,34.90
2022-09-07T12:01:31.793Z,34.90
2022-09-07T12:03:00.315Z,34.60
2022-09-07T12:04:27.490Z,35.20
2022-09-07T12:05:55.644Z,35.20
2022-09-07T12:07:32.078Z,35.20
2022-09-07T12:08:56.697Z,35.10
2022-09-07T12:10:22.047Z,35.10
2022-09-07T12:12:07.657Z,35.10
2022-09-07T12:13:48.597Z,35.20
2022-09-07T12:15:12.425Z,35.10
2022-09-07T12:16:26.515Z,35.20
2022-09-07T12:17:57.257Z,34.40
2022-09-07T12:19:18.139Z,34.40
2022-09-07T12:20:24.928Z,34.60
2022-09-07T12:21:42.679Z,34.40
2022-09-07T12:23:07.217Z,34.40
2022-09-07T12:24:49.890Z,34.20
2022-09-07T12:25:53.063Z,34.30
2022-09-07T12:26:58.299Z,34.70
2022-09-07T12:28:02.337Z,34.90
2022-09-07T12:29:19.134Z,34.40
2022-09-07T12:31:00.297Z,35.40
2022-09-07T12:33:33.451Z,35.20
2022-09-07T12:35:00.939Z,34.70
2022-09-07T12:36:49.640Z,35.00
2022-09-07T12:37:53.401Z,35.20
2022-09-07T12:39:21.355Z,34.80
2022-09-07T12:40:52.223Z,34.40
2022-09-07T12:42:37.783Z,34.60
2022-09-07T12:43:54.111Z,34.00
2022-09-07T12:45:30.678Z,34.10
2022-09-07T12:47:08.514Z,33.50
2022-09-07T12:48:32.926Z,32.90
2022-09-07T12:50:06.608Z,33.60
2022-09-07T12:53:15.496Z,33.70
2022-09-07T12:54:27.934Z,33.00
2022-09-07T12:57:33.065Z,33.50
2022-09-07T12:58:52.995Z,33.50
2022-09-07T13:00:11.750Z,34.20
2022-09-07T13:01:32.614Z,34.20
2022-09-07T13:03:07.375Z,33.60
2022-09-07T13:04:46.424Z,34.00
2022-09-07T13:06:04.133Z,33.50
2022-09-07T13:07:34.464Z,33.40
2022-09-07T13:09:10.059Z,33.40
2022-09-07T13:10:30.795Z,32.50
2022-09-07T13:11:38.339Z,32.80
2022-09-07T13:12:57.353Z,32.50
2022-09-07T13:14:04.957Z,32.50
2022-09-07T13:15:35.693Z,32.50
2022-09-07T13:18:04.931Z,32.00
2022-09-07T13:19:14.638Z,32.70
2022-09-07T13:20:21.580Z,32.60
2022-09-07T13:21:48.885Z,32.90
2022-09-07T13:22:56.260Z,33.20
2022-09-07T13:24:47.658Z,32.70
2022-09-07T13:26:00.422Z,32.50
2022-09-07T13:27:26.659Z,32.70
2022-09-07T13:28:56.314Z,32.50
2022-09-07T13:30:03.217Z,32.70
2022-09-07T13:31:45.167Z,33.20
2022-09-07T13:34:49.322Z,33.10
2022-09-07T13:35:57.077Z,32.80
2022-09-07T13:37:02.543Z,32.90
2022-09-07T13:38:05.580Z,32.70
2022-09-07T13:39:15.367Z,32.00
2022-09-07T13:40:22.219Z,32.90
2022-09-07T13:41:35.520Z,32.90
2022-09-07T13:42:40.129Z,33.10
2022-09-07T13:43:47.780Z,33.30
2022-09-07T13:44:59.912Z,33.20
2022-09-07T13:46:15.000Z,32.80
2022-09-07T13:47:34.666Z,33.00
2022-09-07T13:48:46.334Z,33.00
2022-09-07T13:50:16.928Z,32.50
2022-09-07T13:51:25.218Z,32.80
2022-09-07T13:52:43.807Z,32.50
2022-09-07T13:54:04.148Z,32.70
2022-09-07T13:55:27.642Z,33.20
2022-09-07T13:56:41.123Z,32.90
2022-09-07T13:58:01.568Z,32.80
2022-09-07T13:59:18.437Z,33.60
2022-09-07T14:00:21.031Z,33.00
2022-09-07T14:01:28.928Z,32.90
2022-09-07T14:02:35.391Z,33.10
2022-09-07T14:03:46.444Z,33.40
2022-09-07T14:04:52.184Z,32.70
2022-09-07T14:06:31.859Z,33.20
2022-09-07T14:07:35.011Z,32.30
2022-09-07T14:08:39.954Z,32.30
2022-09-07T14:09:45.320Z,32.00
2022-09-07T14:10:49.929Z,32.60
2022-09-07T14:11:55.364Z,32.70
2022-09-07T14:13:07.697Z,32.10
2022-09-07T14:14:16.226Z,32.20
2022-09-07T14:15:23.359Z,32.10
2022-09-07T14:16:27.791Z,33.80
2022-09-07T14:17:32.513Z,33.50
2022-09-07T14:18:35.302Z,33.40
2022-09-07T14:19:46.415Z,33.50
2022-09-07T14:20:51.473Z,34.00
2022-09-07T14:21:56.870Z,34.60
2022-09-07T14:23:01.434Z,33.60
2022-09-07T14:24:18.955Z,33.40
2022-09-07T14:25:23.349Z,33.00
2022-09-07T14:26:26.448Z,33.60
2022-09-07T14:27:35.247Z,34.70
2022-09-07T14:28:41.679Z,34.60
2022-09-07T14:29:45.153Z,34.00
2022-09-07T14:30:51.344Z,35.30
2022-09-07T14:31:56.840Z,35.10
2022-09-07T14:33:05.997Z,35.00
2022-09-07T14:34:09.760Z,34.70
2022-09-07T14:35:15.290Z,36.30
2022-09-07T14:36:43.610Z,34.80
2022-09-07T14:37:46.982Z,35.20
2022-09-07T14:39:06.238Z,34.90
2022-09-07T14:40:19.916Z,35.20
2022-09-07T14:41:24.062Z,35.50
2022-09-07T14:42:27.980Z,34.60
2022-09-07T14:43:33.686Z,34.60
2022-09-07T14:44:40.480Z,34.70
2022-09-07T14:45:43.676Z,34.80
2022-09-07T14:46:54.620Z,34.50
2022-09-07T14:48:01.568Z,34.40
2022-09-07T14:49:18.060Z,35.20
2022-09-07T14:50:30.882Z,35.90
2022-09-07T14:51:36.819Z,36.20
2022-09-07T14:53:33.868Z,36.90
2022-09-07T14:54:10.799Z,34.80
2022-09-07T14:55:30.843Z,34.30
2022-09-07T14:56:35.634Z,33.80
2022-09-07T14:57:39.678Z,34.30
2022-09-07T14:58:42.293Z,34.30
2022-09-07T14:59:47.764Z,34.20
2022-09-07T15:02:37.588Z,34.50
2022-09-07T15:04:00.234Z,34.60
2022-09-07T15:05:23.170Z,35.10
2022-09-07T15:08:02.761Z,34.70
2022-09-07T15:09:07.212Z,35.00
2022-09-07T15:10:16.135Z,34.80
2022-09-07T15:11:39.981Z,34.30
2022-09-07T15:12:43.553Z,34.70
2022-09-07T15:13:55.165Z,34.70
2022-09-07T15:14:58.018Z,34.70
2022-09-07T15:16:03.820Z,35.10
2022-09-07T15:18:54.368Z,35.20
2022-09-07T15:19:58.531Z,36.90
2022-09-07T15:21:03.199Z,35.50
2022-09-07T15:22:13.645Z,35.00
2022-09-07T15:23:19.609Z,35.40
2022-09-07T15:24:23.058Z,35.00
2022-09-07T15:25:25.797Z,35.30
2022-09-07T15:28:03.331Z,36.30
2022-09-07T15:29:08.791Z,36.60
2022-09-07T15:30:12.215Z,37.20
2022-09-07T15:32:42.574Z,36.00
2022-09-07T15:33:48.376Z,35.80
2022-09-07T15:34:52.105Z,36.20
2022-09-07T15:35:55.846Z,34.40
2022-09-07T15:37:00.924Z,35.10
2022-09-07T15:38:05.550Z,37.20
2022-09-07T15:39:17.182Z,35.90
2022-09-07T15:40:25.253Z,34.80
2022-09-07T15:41:29.577Z,34.70
2022-09-07T15:43:56.810Z,35.10
2022-09-07T15:45:01.929Z,35.70
2022-09-07T15:46:05.290Z,35.00
2022-09-07T15:48:31.391Z,35.30
2022-09-07T15:49:34.273Z,35.00
2022-09-07T15:50:37.962Z,34.90
2022-09-07T15:54:06.656Z,35.10
2022-09-07T15:54:35.048Z,35.50
2022-09-07T15:55:39.499Z,35.60
2022-09-07T15:57:47.505Z,35.30
2022-09-07T15:58:11.848Z,35.00